»·PEaware :: N9373W KLAX-KSAN

N9373W :: KLAX-KSAN

FLIGHT INFORMATION

Flight Status: Arrived
Operator: Privately registered:
United States
More flights under this callsign
Pilot: Erik K. (18332)
Aircraft: BEECH AIRCRAFT BARON
(BE58)
More flights by this aircraft type
Origin: KLAX Los Angeles Intl
United States
Destination: KSAN San Diego Intl-Lindbergh
United States
More flights between these airports :: More routes between these airports
Route: +
File this flight plan on PilotEdge
Remarks: C11
Altitude:
(Current/Filed)
5,500ft
Speed:
(Current/Filed)
0kts
Departed: 04-Apr-18 12:34 PM
Arrived: 04-Apr-18 01:19 PM
Distance/Time
Traveled:
95nm/0:45
Distance/Time
To Go:
Arrived

Flight Plot

Page will automatically refresh every two minutes.


Map Options




Map Legend


Flown Route
Filed Route
Departure Airport
Arrival Airport
Navaid (VOR, NDB)
Fix

Horizontal Profiles

Position Reports

Time Latitude Longitude Heading Altitude Ground
Speed
04-Apr-18 12:14 33.934149 -118.395482 13 103ft 0kts
04-Apr-18 12:15 33.934149 -118.395482 13 103ft 0kts
04-Apr-18 12:16 33.934149 -118.395482 13 103ft 0kts
04-Apr-18 12:17 33.934149 -118.395482 13 103ft 0kts
04-Apr-18 12:18 33.934149 -118.395482 13 103ft 0kts
04-Apr-18 12:19 33.934149 -118.395482 13 103ft 0kts
04-Apr-18 12:20 33.934149 -118.395482 13 103ft 0kts
04-Apr-18 12:21 33.934149 -118.395482 13 103ft 0kts
04-Apr-18 12:22 33.934149 -118.395482 13 103ft 0kts
04-Apr-18 12:23 33.934149 -118.395482 13 103ft 0kts
04-Apr-18 12:24 33.934149 -118.395482 13 103ft 0kts
04-Apr-18 12:25 33.934149 -118.395482 13 103ft 0kts
04-Apr-18 12:26 33.934880 -118.394932 80 102ft 9kts
04-Apr-18 12:27 33.935335 -118.390386 83 99ft 16kts
04-Apr-18 12:28 33.935924 -118.384627 83 96ft 16kts
04-Apr-18 12:29 33.936270 -118.382867 32 93ft 0kts
04-Apr-18 12:30 33.936270 -118.382867 32 93ft 0kts
04-Apr-18 12:31 33.936270 -118.382867 32 93ft 0kts
04-Apr-18 12:32 33.937107 -118.383107 316 93ft 10kts
04-Apr-18 12:33 33.937064 -118.385714 264 96ft 63kts
04-Apr-18 12:34 33.931154 -118.421705 250 1272ft 119kts
04-Apr-18 12:35 33.906534 -118.442648 172 2601ft 127kts
04-Apr-18 12:36 33.867267 -118.438772 165 2564ft 142kts
04-Apr-18 12:37 33.830093 -118.430998 177 2376ft 134kts
04-Apr-18 12:38 33.795504 -118.427677 173 2138ft 107kts
04-Apr-18 12:39 33.776908 -118.424886 172 2109ft 92kts
04-Apr-18 12:40 33.750453 -118.420944 173 2162ft 103kts
04-Apr-18 12:41 33.729974 -118.396153 133 2199ft 113kts
04-Apr-18 12:42 33.711083 -118.372649 134 2566ft 95kts
04-Apr-18 12:43 33.690681 -118.347574 134 2564ft 113kts
04-Apr-18 12:44 33.667652 -118.319281 134 2560ft 122kts
04-Apr-18 12:45 33.641145 -118.286757 134 2564ft 149kts
04-Apr-18 12:46 33.611205 -118.250011 134 2559ft 157kts
04-Apr-18 12:47 33.585676 -118.218707 134 2558ft 158kts
04-Apr-18 12:48 33.554922 -118.181033 134 2559ft 160kts
04-Apr-18 12:49 33.518024 -118.135902 134 2558ft 164kts
04-Apr-18 12:50 33.486000 -118.096768 134 2558ft 164kts
04-Apr-18 12:51 33.459459 -118.064367 134 2558ft 164kts
04-Apr-18 12:52 33.427373 -118.025238 134 2558ft 164kts
04-Apr-18 12:53 33.395359 -117.986242 134 2558ft 164kts
04-Apr-18 12:54 33.363342 -117.947284 134 2558ft 164kts
04-Apr-18 12:55 33.331354 -117.908406 134 2558ft 164kts
04-Apr-18 12:56 33.299282 -117.869468 134 2558ft 164kts
04-Apr-18 12:57 33.267186 -117.830546 134 2558ft 164kts
04-Apr-18 12:58 33.235076 -117.791649 134 2558ft 164kts
04-Apr-18 12:59 33.202065 -117.751733 134 2563ft 180kts
04-Apr-18 13:00 33.165823 -117.707951 134 2559ft 187kts
04-Apr-18 13:01 33.130450 -117.665196 134 3007ft 173kts
04-Apr-18 13:02 33.096554 -117.624360 134 3350ft 180kts
04-Apr-18 13:03 33.060569 -117.581022 133 3346ft 186kts
04-Apr-18 13:04 33.053917 -117.521516 86 3346ft 187kts
04-Apr-18 13:05 33.056605 -117.459339 86 3346ft 187kts
04-Apr-18 13:06 33.028277 -117.418512 157 3347ft 187kts
04-Apr-18 13:07 33.006459 -117.370300 87 2822ft 214kts
04-Apr-18 13:08 33.025506 -117.305905 67 1925ft 194kts
04-Apr-18 13:09 33.008736 -117.265811 195 1966ft 193kts
04-Apr-18 13:10 32.962294 -117.274659 182 2820ft 173kts
04-Apr-18 13:11 32.915508 -117.270866 169 3196ft 183kts
04-Apr-18 13:12 32.868561 -117.253918 166 3276ft 196kts
04-Apr-18 13:13 32.815427 -117.233514 163 2443ft 212kts
04-Apr-18 13:14 32.766814 -117.207895 135 1177ft 150kts
04-Apr-18 13:15 32.755811 -117.172772 100 1485ft 119kts
04-Apr-18 13:16 32.738224 -117.156493 193 1183ft 93kts
04-Apr-18 13:17 32.730846 -117.178566 287 116ft 91kts
04-Apr-18 13:18 32.733106 -117.191564 164 13ft 0kts
04-Apr-18 13:19 32.733106 -117.191564 164 13ft 0kts
04-Apr-18 13:20 32.733106 -117.191564 164 13ft 0kts
04-Apr-18 13:21 32.732893 -117.191249 109 13ft 4kts
04-Apr-18 13:22 32.732513 -117.188767 62 12ft 10kts
04-Apr-18 13:23 32.734073 -117.186591 100 14ft 11kts
04-Apr-18 13:24 32.733059 -117.182837 107 13ft 13kts
04-Apr-18 13:25 32.732076 -117.178820 105 17ft 11kts
04-Apr-18 13:26 32.732450 -117.177470 293 17ft 0kts

Navigation Log

Ident Type
Flight plan parsing failed, navigation log unavailable